»·PEaware :: N4MR BIRK-BGBW

N4MR :: BIRK-BGBW

FLIGHT INFORMATION

Flight Status: Arrived
Operator: Privately registered:
United States
More flights under this callsign
Pilot: Gavin B. (19371)
Aircraft: BEECH AIRCRAFT BARON
(BE58)
More flights by this aircraft type
Origin: BIRK Reykjavik
Iceland
Destination: BGBW Narsarsuaq
Greenland
More flights between these airports :: More routes between these airports
Route:
File this flight plan on PilotEdge
Remarks:
Altitude:
(Current/Filed)
6,500ft
Speed:
(Current/Filed)
140kts
Departed: 10-Sep-18 05:39 AM
Arrived: 10-Sep-18 09:38 AM
Distance/Time
Traveled:
667nm/3:59
Distance/Time
To Go:
Arrived

Flight Plot

Page will automatically refresh every two minutes.

Flight plan parsing failed; only flown route is shown


Map Options




Map Legend


Flown Route
Filed Route
Departure Airport
Arrival Airport
Navaid (VOR, NDB)
Fix

Horizontal Profiles

Position Reports

Time Latitude Longitude Heading Altitude Ground
Speed
10-Sep-18 05:36 64.131305 -21.934480 176 35ft 0kts
10-Sep-18 05:37 64.131305 -21.934480 176 35ft 0kts
10-Sep-18 05:38 64.131305 -21.934480 176 35ft 0kts
10-Sep-18 05:39 64.131305 -21.934480 176 35ft 0kts
10-Sep-18 05:40 64.131176 -21.937164 232 29ft 12kts
10-Sep-18 05:41 64.105382 -21.937247 205 578ft 144kts
10-Sep-18 05:42 64.099367 -22.019658 293 1745ft 153kts
10-Sep-18 05:43 64.117220 -22.107205 291 2921ft 153kts
10-Sep-18 05:44 64.120124 -22.201332 264 4064ft 148kts
10-Sep-18 05:45 64.116836 -22.293553 263 5169ft 144kts
10-Sep-18 05:46 64.113356 -22.383798 263 6218ft 141kts
10-Sep-18 05:47 64.109448 -22.482692 263 6478ft 174kts
10-Sep-18 05:48 64.104837 -22.597936 263 6473ft 186kts
10-Sep-18 05:49 64.100841 -22.695723 262 6474ft 187kts
10-Sep-18 05:50 64.095092 -22.834232 262 6471ft 182kts
10-Sep-18 05:51 64.090395 -22.944208 262 6472ft 168kts
10-Sep-18 05:52 64.085846 -23.049094 261 6473ft 164kts
10-Sep-18 05:53 64.081259 -23.152996 261 6473ft 163kts
10-Sep-18 05:54 64.076618 -23.256569 261 6473ft 163kts
10-Sep-18 05:55 64.072708 -23.342546 261 6473ft 163kts
10-Sep-18 05:56 64.067944 -23.445849 261 6472ft 163kts
10-Sep-18 05:57 64.063102 -23.549221 261 6472ft 163kts
10-Sep-18 05:58 64.058192 -23.652435 261 6472ft 163kts
10-Sep-18 05:59 64.053218 -23.755357 261 6473ft 163kts
10-Sep-18 06:00 64.047305 -23.875563 261 6473ft 163kts
10-Sep-18 06:01 64.042188 -23.978189 262 6473ft 162kts
10-Sep-18 06:02 64.037870 -24.063277 263 6473ft 162kts
10-Sep-18 06:03 64.032627 -24.166097 263 6471ft 170kts
10-Sep-18 06:04 64.026824 -24.278543 262 6475ft 182kts
10-Sep-18 06:05 64.020680 -24.394544 262 6474ft 184kts
10-Sep-18 06:06 64.014448 -24.510821 262 6474ft 185kts
10-Sep-18 06:07 64.008105 -24.627410 262 6474ft 185kts
10-Sep-18 06:08 64.001680 -24.743750 261 6473ft 185kts
10-Sep-18 06:09 63.995166 -24.859937 261 6473ft 185kts
10-Sep-18 06:10 63.988559 -24.976161 261 6474ft 185kts
10-Sep-18 06:11 63.981939 -25.091822 259 6460ft 183kts
10-Sep-18 06:12 63.975276 -25.205419 258 6471ft 178kts
10-Sep-18 06:13 63.968691 -25.316015 258 6472ft 175kts
10-Sep-18 06:14 63.962081 -25.425884 258 6472ft 175kts
10-Sep-18 06:15 63.955391 -25.535725 258 6472ft 175kts
10-Sep-18 06:16 63.948628 -25.645393 258 6472ft 175kts
10-Sep-18 06:17 63.941773 -25.755099 257 6472ft 174kts
10-Sep-18 06:18 63.934871 -25.864197 257 6472ft 174kts
10-Sep-18 06:19 63.927875 -25.973468 257 6472ft 174kts
10-Sep-18 06:20 63.920794 -26.082711 257 6472ft 174kts
10-Sep-18 06:21 63.913632 -26.191880 257 6472ft 174kts
10-Sep-18 06:22 63.906386 -26.301050 257 6472ft 174kts
10-Sep-18 06:23 63.899080 -26.409801 257 6474ft 174kts
10-Sep-18 06:24 63.891653 -26.519074 257 6475ft 175kts
10-Sep-18 06:25 63.884134 -26.628445 257 6475ft 175kts
10-Sep-18 06:26 63.876523 -26.737901 256 6475ft 175kts
10-Sep-18 06:27 63.868859 -26.846876 256 6475ft 175kts
10-Sep-18 06:28 63.861092 -26.956068 256 6475ft 175kts
10-Sep-18 06:29 63.853218 -27.065538 256 6475ft 175kts
10-Sep-18 06:30 63.845283 -27.174641 256 6475ft 175kts
10-Sep-18 06:31 63.837297 -27.283315 256 6475ft 175kts
10-Sep-18 06:32 63.829205 -27.392207 256 6475ft 175kts
10-Sep-18 06:33 63.821075 -27.500381 256 6475ft 173kts
10-Sep-18 06:34 63.812974 -27.607059 256 6475ft 171kts
10-Sep-18 06:35 63.804855 -27.713031 255 6475ft 170kts
10-Sep-18 06:36 63.796661 -27.818833 255 6475ft 171kts
10-Sep-18 06:37 63.788368 -27.924825 255 6475ft 171kts
10-Sep-18 06:38 63.780023 -28.030441 255 6475ft 170kts
10-Sep-18 06:39 63.771668 -28.135197 256 6475ft 168kts
10-Sep-18 06:40 63.763301 -28.239090 256 6475ft 168kts
10-Sep-18 06:41 63.754866 -28.342849 256 6475ft 167kts
10-Sep-18 06:42 63.746346 -28.446690 256 6474ft 167kts
10-Sep-18 06:43 63.737808 -28.549763 256 6474ft 167kts
10-Sep-18 06:44 63.729186 -28.652893 255 6474ft 166kts
10-Sep-18 06:45 63.720511 -28.755706 255 6475ft 166kts
10-Sep-18 06:46 63.711854 -28.857400 255 6474ft 166kts
10-Sep-18 06:47 63.703030 -28.960107 255 6474ft 167kts
10-Sep-18 06:48 63.694125 -29.062869 255 6475ft 167kts
10-Sep-18 06:49 63.685085 -29.166306 256 6474ft 167kts
10-Sep-18 06:50 63.676009 -29.269245 256 6474ft 167kts
10-Sep-18 06:51 63.666860 -29.372076 256 6474ft 167kts
10-Sep-18 06:52 63.657632 -29.474918 256 6474ft 167kts
10-Sep-18 06:53 63.648337 -29.577609 256 6474ft 167kts
10-Sep-18 06:54 63.638954 -29.680389 255 6474ft 167kts
10-Sep-18 06:55 63.629518 -29.782903 255 6474ft 167kts
10-Sep-18 06:56 63.619999 -29.885453 255 6474ft 167kts
10-Sep-18 06:57 63.610436 -29.987466 255 6474ft 167kts
10-Sep-18 06:58 63.600791 -30.089776 255 6474ft 167kts
10-Sep-18 06:59 63.591089 -30.191735 255 6474ft 167kts
10-Sep-18 07:00 63.581303 -30.293739 255 6474ft 167kts
10-Sep-18 07:01 63.571453 -30.395595 255 6474ft 167kts
10-Sep-18 07:02 63.561526 -30.497432 255 6474ft 167kts
10-Sep-18 07:03 63.551530 -30.599167 255 6474ft 167kts
10-Sep-18 07:04 63.541563 -30.699807 254 6474ft 167kts
10-Sep-18 07:05 63.531448 -30.801172 254 6474ft 167kts
10-Sep-18 07:06 63.521226 -30.902804 254 6474ft 167kts
10-Sep-18 07:07 63.510970 -31.004163 254 6474ft 167kts
10-Sep-18 07:08 63.500289 -31.106188 261 6475ft 170kts
10-Sep-18 07:09 63.489746 -31.211772 253 6476ft 181kts
10-Sep-18 07:10 63.478055 -31.323661 254 6475ft 186kts
10-Sep-18 07:11 63.466188 -31.437030 254 6475ft 187kts
10-Sep-18 07:12 63.454197 -31.550654 254 6475ft 187kts
10-Sep-18 07:13 63.442117 -31.664208 253 6474ft 187kts
10-Sep-18 07:14 63.429969 -31.777413 253 6473ft 187kts
10-Sep-18 07:15 63.417730 -31.890542 253 6474ft 187kts
10-Sep-18 07:16 63.405429 -32.003339 253 6474ft 187kts
10-Sep-18 07:17 63.392999 -32.116405 253 6474ft 187kts
10-Sep-18 07:18 63.380494 -32.229236 253 6474ft 187kts
10-Sep-18 07:19 63.367879 -32.342161 253 6474ft 187kts
10-Sep-18 07:20 63.355650 -32.450393 254 6474ft 187kts
10-Sep-18 07:21 63.342831 -32.563618 255 6475ft 188kts
10-Sep-18 07:22 63.329916 -32.676699 254 6478ft 188kts
10-Sep-18 07:23 63.316888 -32.789662 254 6504ft 188kts
10-Sep-18 07:24 63.303843 -32.901982 255 6527ft 188kts
10-Sep-18 07:25 63.290664 -33.014675 255 6528ft 189kts
10-Sep-18 07:26 63.277332 -33.127737 255 6528ft 189kts
10-Sep-18 07:27 63.263881 -33.240927 255 6529ft 189kts
10-Sep-18 07:28 63.250370 -33.353772 255 6529ft 189kts
10-Sep-18 07:29 63.236745 -33.466705 255 6529ft 189kts
10-Sep-18 07:30 63.223057 -33.579321 255 6529ft 189kts
10-Sep-18 07:31 63.209261 -33.692011 254 6528ft 189kts
10-Sep-18 07:32 63.195419 -33.804164 254 6528ft 189kts
10-Sep-18 07:33 63.181487 -33.916295 254 6528ft 189kts
10-Sep-18 07:34 63.167426 -34.028624 254 6528ft 189kts
10-Sep-18 07:35 63.153296 -34.140690 254 6528ft 189kts
10-Sep-18 07:36 63.139065 -34.252746 254 6529ft 189kts
10-Sep-18 07:37 63.124733 -34.364791 254 6529ft 189kts
10-Sep-18 07:38 63.110312 -34.476731 254 6529ft 189kts
10-Sep-18 07:39 63.095794 -34.588628 254 6529ft 189kts
10-Sep-18 07:40 63.081172 -34.700552 253 6528ft 189kts
10-Sep-18 07:41 63.066494 -34.812070 253 6528ft 189kts
10-Sep-18 07:42 63.051770 -34.923036 254 6528ft 188kts
10-Sep-18 07:43 63.037099 -35.033264 252 6543ft 183kts
10-Sep-18 07:44 63.022559 -35.141300 254 6529ft 185kts
10-Sep-18 07:45 63.007862 -35.250088 254 6529ft 185kts
10-Sep-18 07:46 62.993124 -35.358552 254 6536ft 185kts
10-Sep-18 07:47 62.978330 -35.466616 252 6548ft 183kts
10-Sep-18 07:48 62.963564 -35.573531 252 6555ft 181kts
10-Sep-18 07:49 62.948860 -35.679347 251 6554ft 181kts
10-Sep-18 07:50 62.934130 -35.784752 251 6554ft 180kts
10-Sep-18 07:51 62.919350 -35.889881 251 6555ft 180kts
10-Sep-18 07:52 62.904428 -35.995351 251 6555ft 180kts
10-Sep-18 07:53 62.889462 -36.100479 251 6555ft 180kts
10-Sep-18 07:54 62.874408 -36.205561 251 6555ft 180kts
10-Sep-18 07:55 62.859518 -36.309058 250 6555ft 173kts
10-Sep-18 07:56 62.845364 -36.406552 250 6555ft 165kts
10-Sep-18 07:57 62.831448 -36.501922 250 6555ft 164kts
10-Sep-18 07:58 62.817525 -36.596857 250 6555ft 163kts
10-Sep-18 07:59 62.803558 -36.691577 249 6556ft 163kts
10-Sep-18 08:00 62.789533 -36.786187 249 6556ft 163kts
10-Sep-18 08:01 62.775422 -36.880850 249 6556ft 163kts
10-Sep-18 08:02 62.761273 -36.975260 249 6556ft 163kts
10-Sep-18 08:03 62.747021 -37.069912 249 6556ft 164kts
10-Sep-18 08:04 62.732614 -37.164986 248 6556ft 166kts
10-Sep-18 08:05 62.718034 -37.260629 248 6556ft 167kts
10-Sep-18 08:06 62.705745 -37.340869 248 6555ft 167kts
10-Sep-18 08:07 62.690973 -37.436864 248 6555ft 167kts
10-Sep-18 08:08 62.673671 -37.548629 248 6555ft 167kts
10-Sep-18 08:09 62.658794 -37.644183 248 6555ft 166kts
10-Sep-18 08:10 62.646357 -37.723681 248 6555ft 166kts
10-Sep-18 08:11 62.631454 -37.818479 248 6574ft 166kts
10-Sep-18 08:12 62.616529 -37.912900 248 6574ft 166kts
10-Sep-18 08:13 62.601433 -38.007915 248 6574ft 166kts
10-Sep-18 08:14 62.583776 -38.118413 248 6573ft 166kts
10-Sep-18 08:15 62.571102 -38.197306 248 6573ft 166kts
10-Sep-18 08:16 62.555794 -38.292143 248 6573ft 166kts
10-Sep-18 08:17 62.540470 -38.386589 248 6573ft 166kts
10-Sep-18 08:18 62.525106 -38.480795 248 6573ft 166kts
10-Sep-18 08:19 62.509632 -38.575181 248 6573ft 166kts
10-Sep-18 08:20 62.494297 -38.668238 247 6573ft 166kts
10-Sep-18 08:21 62.478751 -38.762112 247 6573ft 166kts
10-Sep-18 08:22 62.463085 -38.856224 247 6573ft 166kts
10-Sep-18 08:23 62.447391 -38.950027 247 6573ft 166kts
10-Sep-18 08:24 62.431733 -39.042801 251 6573ft 163kts
10-Sep-18 08:25 62.416176 -39.135147 250 6573ft 163kts
10-Sep-18 08:26 62.400588 -39.226978 250 6573ft 163kts
10-Sep-18 08:27 62.384936 -39.318696 250 6573ft 163kts
10-Sep-18 08:28 62.369244 -39.410200 250 6573ft 163kts
10-Sep-18 08:29 62.353472 -39.501719 250 6573ft 163kts
10-Sep-18 08:30 62.337673 -39.592950 250 6572ft 163kts
10-Sep-18 08:31 62.321920 -39.683471 250 6574ft 163kts
10-Sep-18 08:32 62.305966 -39.774727 250 6574ft 163kts
10-Sep-18 08:33 62.289895 -39.866205 250 6573ft 163kts
10-Sep-18 08:34 62.273822 -39.957253 250 6573ft 163kts
10-Sep-18 08:35 62.257674 -40.048293 250 6573ft 163kts
10-Sep-18 08:36 62.241474 -40.139255 249 6584ft 164kts
10-Sep-18 08:37 62.225089 -40.230757 249 6604ft 163kts
10-Sep-18 08:38 62.208956 -40.320423 249 6624ft 162kts
10-Sep-18 08:39 62.192674 -40.410454 249 6626ft 162kts
10-Sep-18 08:40 62.176295 -40.500641 249 6626ft 162kts
10-Sep-18 08:41 62.159845 -40.590804 249 6626ft 162kts
10-Sep-18 08:42 62.143557 -40.679654 248 6627ft 162kts
10-Sep-18 08:43 62.126962 -40.769784 248 6627ft 162kts
10-Sep-18 08:44 62.110333 -40.859689 248 6627ft 162kts
10-Sep-18 08:45 62.093662 -40.949400 248 6627ft 162kts
10-Sep-18 08:46 62.077010 -41.038604 248 6627ft 162kts
10-Sep-18 08:47 62.060208 -41.128183 248 6627ft 162kts
10-Sep-18 08:48 62.043494 -41.216900 248 6626ft 162kts
10-Sep-18 08:49 62.026645 -41.305934 248 6626ft 162kts
10-Sep-18 08:50 62.009752 -41.394805 248 6626ft 162kts
10-Sep-18 08:51 61.992785 -41.483661 248 6626ft 162kts
10-Sep-18 08:52 61.975792 -41.572256 248 6626ft 162kts
10-Sep-18 08:53 61.958858 -41.660148 247 6627ft 162kts
10-Sep-18 08:54 61.941735 -41.748628 247 6627ft 162kts
10-Sep-18 08:55 61.924527 -41.837162 247 6627ft 162kts
10-Sep-18 08:56 61.907219 -41.925816 247 6627ft 162kts
10-Sep-18 08:57 61.890028 -42.013489 247 6628ft 162kts
10-Sep-18 08:58 61.872662 -42.101669 247 6628ft 162kts
10-Sep-18 08:59 61.855327 -42.189299 247 6628ft 161kts
10-Sep-18 09:00 61.837890 -42.277066 247 6627ft 161kts
10-Sep-18 09:01 61.820430 -42.364562 247 6627ft 161kts
10-Sep-18 09:02 61.802927 -42.451899 247 6627ft 161kts
10-Sep-18 09:03 61.785338 -42.539289 247 6627ft 161kts
10-Sep-18 09:04 61.767771 -42.626199 247 6627ft 161kts
10-Sep-18 09:05 61.750309 -42.712222 246 6628ft 161kts
10-Sep-18 09:06 61.732582 -42.799191 246 6628ft 161kts
10-Sep-18 09:07 61.714724 -42.886418 246 6628ft 161kts
10-Sep-18 09:08 61.696889 -42.973166 246 6628ft 161kts
10-Sep-18 09:09 61.679077 -43.059373 246 6637ft 160kts
10-Sep-18 09:10 61.661377 -43.144720 247 6647ft 158kts
10-Sep-18 09:11 61.643806 -43.229186 247 6654ft 157kts
10-Sep-18 09:12 61.626196 -43.313454 247 6654ft 157kts
10-Sep-18 09:13 61.608556 -43.397501 247 6654ft 157kts
10-Sep-18 09:14 61.587548 -43.474168 218 6654ft 160kts
10-Sep-18 09:15 61.558455 -43.541981 239 6653ft 157kts
10-Sep-18 09:16 61.531512 -43.613642 235 6651ft 158kts
10-Sep-18 09:17 61.523908 -43.693442 215 6888ft 151kts
10-Sep-18 09:18 61.497733 -43.750642 224 7469ft 138kts
10-Sep-18 09:19 61.474341 -43.808554 256 8130ft 130kts
10-Sep-18 09:20 61.476949 -43.891926 274 8109ft 151kts
10-Sep-18 09:21 61.477584 -43.980143 260 8108ft 153kts
10-Sep-18 09:22 61.464477 -44.065625 250 8107ft 154kts
10-Sep-18 09:23 61.447590 -44.148217 248 8107ft 156kts
10-Sep-18 09:24 61.429722 -44.230948 248 8107ft 156kts
10-Sep-18 09:25 61.411666 -44.313485 248 8107ft 156kts
10-Sep-18 09:26 61.393492 -44.396069 248 8106ft 156kts
10-Sep-18 09:27 61.375220 -44.478874 247 8106ft 158kts
10-Sep-18 09:28 61.356722 -44.562161 247 8106ft 159kts
10-Sep-18 09:29 61.337893 -44.646654 247 8106ft 161kts
10-Sep-18 09:30 61.319062 -44.730836 246 8108ft 162kts
10-Sep-18 09:31 61.301960 -44.817785 263 8013ft 170kts
10-Sep-18 09:32 61.293758 -44.923279 257 6784ft 185kts
10-Sep-18 09:33 61.284526 -45.030192 269 5820ft 190kts
10-Sep-18 09:34 61.275837 -45.136010 250 5220ft 187kts
10-Sep-18 09:35 61.254402 -45.234238 234 4644ft 183kts
10-Sep-18 09:36 61.229586 -45.295913 226 3557ft 126kts
10-Sep-18 09:37 61.205730 -45.344686 223 2099ft 120kts
10-Sep-18 09:38 61.181658 -45.390657 217 1049ft 117kts
10-Sep-18 09:39 61.163167 -45.421382 219 159ft 43kts
10-Sep-18 09:40 61.163342 -45.418686 130 169ft 7kts

Navigation Log

Ident Type
Flight plan parsing failed, navigation log unavailable